Hauptseite
METAR-TAF:

METAR-TAF

Flughäfen :

Oberpfaffenhofen, Deutschland

Flugplatz Oberpfaffenhofen

Breite: 48-05N, Länge: 011-17E, Höhe: 600 m

Beobachtung

Neuester Wetterbericht von vor 6 Stunden und 46 Minuten, um 17:50 UTC
Wind 14 kt aus Ost/Nordost
Temperatur -3°C
Luftfeuchtigkeit 86%
Luftdruck 1013 hPa
Sichtweite: 8000 m
Geschlossene Wolkendecke in der Höhe von 1500 ft

METAR: EDMO 231750Z 07014KT 8000 OVC015 M03/M05 Q1013

Zeit: 01:36 (00:36 UTC)

Prognose

Neuester Wetterbericht von vor 7 Stunden und 36 Minuten, um 17:00 UTC
Gültige Prognose vom 23 um 18 UTC bis 24 um 03 UTC
Wind 10 kt aus Ost/Nordost
Sichtweite: 8000 m
Geschlossene Wolkendecke in der Höhe von 1400 ft

TAF: EDMO 231700Z 2318/2403 07010KT 8000 OVC014

Wetterbeobachtungen und Prognosen von mehr als 4000 Flughäfen (METAR und TAF Bericht).

Die verfügbaren Stationen werden durch gelbe und rote Markierungen auf der Karte dargestellt.

Führen Sie die Maus auf sie, um den Namen der Station zu sehen.

Darauf klicken, um die Beobachtung von Wetterbeobachtungen und Prognosen zu sehen.

Um die Karte zu ändern : klicken Sie auf den grünen Tasten mit einem schwarzen Kreuz Zum Vergrößern, auf den grünen Button mit einem Gedankenstrich zu verkleinern, oder auf die grünen Pfeile für benachbarte Karten.


METAR-TAF: